createdAt,value
2022-11-24T00:04:25.935Z,99788.31
2022-11-24T00:09:27.957Z,99783.84
2022-11-24T00:14:29.770Z,99786.19
2022-11-24T00:19:31.893Z,99782.50
2022-11-24T00:24:34.251Z,99796.63
2022-11-24T00:29:36.379Z,99789.03
2022-11-24T00:34:38.877Z,99796.31
2022-11-24T00:39:40.821Z,99799.94
2022-11-24T00:44:42.751Z,99797.56
2022-11-24T00:49:44.899Z,99810.81
2022-11-24T00:54:46.915Z,99810.25
2022-11-24T00:59:48.949Z,99799.44
2022-11-24T01:04:50.835Z,99820.75
2022-11-24T01:09:52.740Z,99822.91
2022-11-24T01:14:54.917Z,99838.72
2022-11-24T01:19:56.830Z,99833.91
2022-11-24T01:24:58.588Z,99838.06
2022-11-24T01:30:00.613Z,99837.81
2022-11-24T01:35:06.884Z,99835.03
2022-11-24T01:40:09.514Z,99840.38
2022-11-24T01:45:31.766Z,99843.19
2022-11-24T01:50:35.931Z,99846.78
2022-11-24T01:55:39.935Z,99845.66
2022-11-24T02:00:44.951Z,99847.38
2022-11-24T02:05:50.699Z,99853.72
2022-11-24T02:10:53.780Z,99864.69
2022-11-24T02:15:56.240Z,99857.97
2022-11-24T02:20:59.590Z,99846.97
2022-11-24T02:26:14.537Z,99864.03
2022-11-24T02:31:16.631Z,99866.69
2022-11-24T02:36:18.652Z,99885.59
2022-11-24T02:41:25.220Z,99875.28
2022-11-24T02:46:27.277Z,99871.41
2022-11-24T02:51:30.394Z,99888.69
2022-11-24T02:56:32.443Z,99877.66
2022-11-24T03:01:34.448Z,99887.50
2022-11-24T03:06:36.438Z,99900.25
2022-11-24T03:11:38.790Z,99911.16
2022-11-24T03:16:40.617Z,99918.94
2022-11-24T03:21:42.805Z,99916.88
2022-11-24T03:26:44.618Z,99919.13
2022-11-24T03:31:46.516Z,99919.88
2022-11-24T03:36:48.576Z,99922.72
2022-11-24T03:41:51.784Z,99928.38
2022-11-24T03:46:53.741Z,99941.28
2022-11-24T03:51:55.789Z,99935.22
2022-11-24T03:56:57.645Z,99937.50
2022-11-24T04:01:59.594Z,99939.66
2022-11-24T04:07:01.379Z,99942.41
2022-11-24T04:12:21.881Z,99949.59
2022-11-24T04:17:23.716Z,99953.84
2022-11-24T04:22:25.462Z,99955.47
2022-11-24T04:27:27.400Z,99963.41
2022-11-24T04:32:29.489Z,99959.84
2022-11-24T04:37:31.334Z,99950.16
2022-11-24T04:42:33.571Z,99954.34
2022-11-24T04:47:35.424Z,99957.09
2022-11-24T04:52:37.432Z,99978.41
2022-11-24T04:57:39.897Z,99988.22
2022-11-24T05:02:41.998Z,99989.16
2022-11-24T05:07:43.784Z,99982.44
2022-11-24T05:12:50.999Z,100004.47
2022-11-24T05:17:53.715Z,100003.38
2022-11-24T05:22:55.778Z,100014.81
2022-11-24T05:28:02.630Z,100018.66
2022-11-24T05:33:09.221Z,100018.44
2022-11-24T05:38:11.015Z,100033.22
2022-11-24T05:43:14.484Z,100030.81
2022-11-24T05:48:16.811Z,100033.31
2022-11-24T05:53:18.744Z,100041.25
2022-11-24T05:58:20.850Z,100042.28
2022-11-24T06:03:22.937Z,100057.31
2022-11-24T06:08:29.692Z,100067.75
2022-11-24T06:13:33.249Z,100065.59
2022-11-24T06:18:35.344Z,100066.91
2022-11-24T06:23:37.514Z,100082.13
2022-11-24T06:28:39.701Z,100090.84
2022-11-24T06:33:41.497Z,100099.13
2022-11-24T06:38:43.503Z,100107.00
2022-11-24T06:43:46.278Z,100118.41
2022-11-24T06:48:51.130Z,100128.13
2022-11-24T06:53:52.913Z,100138.66
2022-11-24T06:58:54.786Z,100138.66
2022-11-24T07:03:57.611Z,100152.53
2022-11-24T07:08:59.383Z,100174.13
2022-11-24T07:14:01.204Z,100183.13
2022-11-24T07:19:03.061Z,100199.56
2022-11-24T07:24:05.321Z,100204.97
2022-11-24T07:29:07.267Z,100207.00
2022-11-24T07:34:09.347Z,100236.63
2022-11-24T07:39:11.278Z,100249.41
2022-11-24T07:44:13.125Z,100258.47
2022-11-24T07:49:15.012Z,100267.22
2022-11-24T07:54:16.848Z,100285.53
2022-11-24T07:59:18.940Z,100291.72
2022-11-24T08:04:20.785Z,100298.09
2022-11-24T08:09:22.606Z,100315.06
2022-11-24T08:14:24.573Z,100309.16
2022-11-24T08:19:26.651Z,100325.56
2022-11-24T08:24:28.670Z,100333.75
2022-11-24T08:29:31.340Z,100332.19
2022-11-24T08:34:33.563Z,100340.06
2022-11-24T08:39:35.861Z,100347.78
2022-11-24T08:44:37.888Z,100358.56
2022-11-24T08:49:39.806Z,100383.03
2022-11-24T08:54:44.413Z,100383.88
2022-11-24T08:59:46.505Z,100397.31
2022-11-24T09:04:48.433Z,100393.47
2022-11-24T09:09:50.363Z,100398.75
2022-11-24T09:14:52.503Z,100401.81
2022-11-24T09:19:54.643Z,100412.03
2022-11-24T09:24:56.464Z,100418.09
2022-11-24T09:29:58.588Z,100427.88
2022-11-24T09:35:00.332Z,100433.16
2022-11-24T09:40:02.375Z,100440.50
2022-11-24T09:45:19.975Z,100439.66
2022-11-24T09:50:34.948Z,100459.13
2022-11-24T09:55:50.329Z,100449.78
2022-11-24T10:00:54.208Z,100460.00
2022-11-24T10:05:56.520Z,100465.22
2022-11-24T10:11:01.460Z,100460.97
2022-11-24T10:16:10.803Z,100463.84
2022-11-24T10:21:41.979Z,100471.38
2022-11-24T10:26:52.506Z,100471.38
2022-11-24T10:31:56.508Z,100478.56
2022-11-24T10:37:26.028Z,100481.75
2022-11-24T10:42:38.203Z,100486.22
2022-11-24T10:47:41.548Z,100499.63
2022-11-24T10:52:48.072Z,100503.63
2022-11-24T10:57:50.032Z,100499.94
2022-11-24T11:03:11.915Z,100496.69
2022-11-24T11:08:20.662Z,100487.94
2022-11-24T11:13:31.009Z,100493.59
2022-11-24T11:18:34.035Z,100499.94
2022-11-24T11:23:36.689Z,100491.22
2022-11-24T11:28:38.538Z,100483.78
2022-11-24T11:39:03.985Z,100487.50
2022-11-24T11:44:21.807Z,100482.69
2022-11-24T11:49:23.935Z,100490.78
2022-11-24T11:54:25.589Z,100487.00
2022-11-24T11:59:53.087Z,100479.09
2022-11-24T12:05:00.586Z,100491.50
2022-11-24T12:10:17.628Z,100486.13
2022-11-24T12:15:51.955Z,100481.19
2022-11-24T12:21:24.819Z,100476.06
2022-11-24T12:26:59.082Z,100485.34
2022-11-24T12:32:27.305Z,100485.09
2022-11-24T12:37:43.864Z,100487.50
2022-11-24T12:43:14.739Z,100491.28
2022-11-24T12:48:22.435Z,100495.13
2022-11-24T12:53:29.053Z,100493.53
2022-11-24T12:59:09.771Z,100498.19
2022-11-24T13:04:34.059Z,100494.56
2022-11-24T13:09:36.383Z,100494.56
2022-11-24T13:14:42.077Z,100494.25
2022-11-24T13:19:43.843Z,100486.38
2022-11-24T13:24:45.656Z,100489.88
2022-11-24T13:29:50.071Z,100494.69
2022-11-24T13:34:55.354Z,100487.81
2022-11-24T13:40:10.125Z,100489.09
2022-11-24T13:45:41.787Z,100484.63
2022-11-24T13:50:59.032Z,100484.25
2022-11-24T13:56:13.200Z,100478.78
2022-11-24T14:01:19.939Z,100482.50
2022-11-24T14:06:34.718Z,100477.53
2022-11-24T14:11:36.970Z,100484.00
2022-11-24T14:16:38.949Z,100481.31
2022-11-24T14:21:41.678Z,100474.97
2022-11-24T14:26:47.522Z,100469.44
2022-11-24T14:31:57.820Z,100476.06
2022-11-24T14:37:01.349Z,100478.06
2022-11-24T14:42:04.783Z,100475.13
2022-11-24T14:47:15.169Z,100474.50
2022-11-24T14:52:19.602Z,100483.22
2022-11-24T14:57:31.959Z,100489.16
2022-11-24T15:02:53.625Z,100488.31
2022-11-24T15:08:02.805Z,100500.72
2022-11-24T15:13:15.381Z,100505.94
2022-11-24T15:18:33.882Z,100509.03
2022-11-24T15:23:37.330Z,100510.53
2022-11-24T15:28:39.330Z,100507.44
2022-11-24T15:33:42.409Z,100507.75
2022-11-24T15:38:44.324Z,100512.75
2022-11-24T15:43:46.276Z,100515.41
2022-11-24T15:48:48.316Z,100516.47
2022-11-24T15:53:57.103Z,100514.09
2022-11-24T15:59:02.547Z,100527.44
2022-11-24T16:04:04.844Z,100521.13
2022-11-24T16:09:06.758Z,100527.34
2022-11-24T16:14:08.656Z,100514.03
2022-11-24T16:19:11.142Z,100517.63
2022-11-24T16:24:13.115Z,100523.91
2022-11-24T16:29:15.190Z,100537.34
2022-11-24T16:34:17.259Z,100538.06
2022-11-24T16:39:19.370Z,100527.28
2022-11-24T16:44:21.475Z,100534.81
2022-11-24T16:49:23.229Z,100534.47
2022-11-24T16:54:26.123Z,100535.41
2022-11-24T16:59:28.432Z,100535.97
2022-11-24T17:04:30.470Z,100537.69
2022-11-24T17:09:38.916Z,100534.34
2022-11-24T17:14:44.340Z,100531.69
2022-11-24T17:19:50.856Z,100530.75
2022-11-24T17:24:53.056Z,100531.59
2022-11-24T17:29:54.914Z,100521.66
2022-11-24T17:34:56.760Z,100532.38
2022-11-24T17:40:26.291Z,100535.41
2022-11-24T17:45:20.238Z,100541.63
2022-11-24T17:50:25.756Z,100540.44
2022-11-24T17:55:31.282Z,100538.84
2022-11-24T18:00:33.906Z,100551.59
2022-11-24T18:05:36.723Z,100545.63
2022-11-24T18:10:39.078Z,100548.28
2022-11-24T18:15:41.204Z,100541.84
2022-11-24T18:20:43.130Z,100544.56
2022-11-24T18:25:53.360Z,100537.63
2022-11-24T18:31:08.020Z,100527.03
2022-11-24T18:36:14.097Z,100509.81
2022-11-24T18:41:16.243Z,100510.63
2022-11-24T18:46:18.872Z,100511.63
2022-11-24T18:51:22.872Z,100511.56
2022-11-24T18:56:25.281Z,100510.47
2022-11-24T19:01:29.090Z,100508.91
2022-11-24T19:06:34.013Z,100502.59
2022-11-24T19:11:40.386Z,100501.44
2022-11-24T19:16:42.913Z,100506.53
2022-11-24T19:21:45.022Z,100500.66
2022-11-24T19:26:47.230Z,100497.50
2022-11-24T19:31:49.059Z,100489.63
2022-11-24T19:36:50.865Z,100497.59
2022-11-24T19:41:53.494Z,100490.06
2022-11-24T19:46:55.246Z,100473.50
2022-11-24T19:51:57.005Z,100482.97
2022-11-24T19:56:58.733Z,100481.94
2022-11-24T20:02:01.906Z,100489.19
2022-11-24T20:07:04.011Z,100497.13
2022-11-24T20:12:06.209Z,100508.75
2022-11-24T20:17:08.021Z,100518.34
2022-11-24T20:22:10.693Z,100505.88
2022-11-24T20:27:12.423Z,100499.88
2022-11-24T20:32:19.540Z,100485.16
2022-11-24T20:37:21.559Z,100491.53
2022-11-24T20:42:23.327Z,100497.91
2022-11-24T20:47:25.112Z,100506.03
2022-11-24T20:52:26.966Z,100501.13
2022-11-24T20:57:29.369Z,100511.03
2022-11-24T21:02:31.897Z,100497.84
2022-11-24T21:07:33.777Z,100495.28
2022-11-24T21:12:35.686Z,100494.25
2022-11-24T21:17:37.730Z,100493.78
2022-11-24T21:22:40.356Z,100492.56
2022-11-24T21:27:42.387Z,100479.38
2022-11-24T21:32:44.402Z,100482.75
2022-11-24T21:37:46.383Z,100479.59
2022-11-24T21:42:48.296Z,100484.75
2022-11-24T21:47:50.636Z,100473.22
2022-11-24T21:52:52.667Z,100476.84
2022-11-24T21:57:54.814Z,100473.41
2022-11-24T22:02:56.852Z,100452.75
2022-11-24T22:07:59.163Z,100441.56
2022-11-24T22:13:01.032Z,100428.16
2022-11-24T22:18:02.740Z,100417.66
2022-11-24T22:23:04.865Z,100417.06
2022-11-24T22:28:06.676Z,100398.44
2022-11-24T22:33:08.897Z,100399.09
2022-11-24T22:38:10.839Z,100397.06
2022-11-24T22:43:13.066Z,100395.66
2022-11-24T22:48:15.196Z,100392.31
2022-11-24T22:53:17.201Z,100391.34
2022-11-24T22:58:19.235Z,100393.09
2022-11-24T23:03:21.292Z,100388.94
2022-11-24T23:08:23.749Z,100394.94
2022-11-24T23:13:25.422Z,100401.81
2022-11-24T23:18:27.473Z,100401.50
2022-11-24T23:23:29.749Z,100407.34
2022-11-24T23:28:31.838Z,100403.63
2022-11-24T23:33:33.916Z,100399.94
2022-11-24T23:38:36.691Z,100387.78
2022-11-24T23:43:40.968Z,100386.06
2022-11-24T23:48:43.118Z,100386.84
2022-11-24T23:53:45.354Z,100371.53
2022-11-24T23:58:47.267Z,100375.31
